Time;durP1;ratioP1;P1;durP2;ratioP2;P2;SDS_P1;SDS_P2;PMS_P1;PMS_P2;Temp;Humidity;BMP_temperature;BMP_pressure;BME280_temperature;BME280_humidity;BME280_pressure;Samples;Min_cycle;Max_cycle;Signal;HPM_P1;HPM_P2
2023/01/31 00:01:14;;;;;;;24.90;3.78;;;4.80;99.90;;;;;;5116674;27;20043;-72
2023/01/31 00:03:42;;;;;;;28.17;4.53;;;6.30;99.90;;;;;;5135529;27;20047;-72
2023/01/31 00:06:18;;;;;;;22.15;4.78;;;4.80;99.90;;;;;;5139078;27;20063;-72
2023/01/31 00:08:44;;;;;;;24.92;3.90;;;4.80;99.90;;;;;;5136615;27;20058;-72
2023/01/31 00:11:11;;;;;;;23.70;3.97;;;6.00;99.90;;;;;;5137541;27;20095;-72
2023/01/31 00:13:37;;;;;;;23.00;3.63;;;5.90;99.90;;;;;;5136116;27;20119;-72
2023/01/31 00:16:03;;;;;;;25.13;4.13;;;5.10;99.90;;;;;;5136389;27;20099;-72
2023/01/31 00:18:29;;;;;;;16.55;3.58;;;4.80;99.90;;;;;;5136106;27;20491;-72
2023/01/31 00:20:55;;;;;;;21.52;4.10;;;4.80;99.90;;;;;;5136102;27;20121;-72
2023/01/31 00:23:20;;;;;;;22.90;3.65;;;5.80;99.90;;;;;;5137377;27;20524;-72
2023/01/31 00:25:47;;;;;;;27.88;4.18;;;5.70;99.90;;;;;;5135985;27;20046;-72
2023/01/31 00:28:12;;;;;;;20.10;4.35;;;5.80;99.90;;;;;;5137435;27;20043;-72
2023/01/31 00:30:38;;;;;;;27.83;3.83;;;4.80;99.90;;;;;;5135741;27;20440;-72
2023/01/31 00:33:03;;;;;;;20.70;3.50;;;4.80;99.90;;;;;;5135683;27;20392;-72
2023/01/31 00:35:29;;;;;;;20.38;4.60;;;4.80;99.90;;;;;;5134803;27;20046;-72
2023/01/31 00:37:55;;;;;;;21.75;4.15;;;4.70;99.90;;;;;;5141402;27;20035;-72
2023/01/31 00:40:20;;;;;;;23.88;3.20;;;4.70;99.90;;;;;;5139067;27;20550;-73
2023/01/31 00:42:46;;;;;;;19.33;4.18;;;5.80;99.90;;;;;;5157487;27;20432;-72
2023/01/31 00:45:12;;;;;;;24.45;3.42;;;5.20;99.90;;;;;;5138822;27;20077;-72
2023/01/31 00:47:37;;;;;;;22.20;3.38;;;4.60;99.90;;;;;;5137950;27;20038;-72
2023/01/31 00:50:04;;;;;;;17.05;3.30;;;4.60;99.90;;;;;;5148125;27;20031;-72
2023/01/31 00:52:30;;;;;;;30.80;4.55;;;4.70;99.90;;;;;;5138630;27;20031;-72
2023/01/31 00:54:56;;;;;;;20.98;3.85;;;4.70;99.90;;;;;;5088745;27;20107;-72
2023/01/31 00:57:21;;;;;;;23.85;3.63;;;4.70;99.90;;;;;;5136180;27;20039;-72
2023/01/31 00:59:47;;;;;;;23.75;3.78;;;5.70;99.90;;;;;;5157527;27;20371;-72
2023/01/31 01:02:13;;;;;;;19.13;4.38;;;4.70;99.90;;;;;;5156951;27;20038;-72
2023/01/31 01:04:39;;;;;;;23.77;3.53;;;5.00;99.90;;;;;;5156375;27;20045;-72
2023/01/31 01:07:04;;;;;;;20.20;3.25;;;4.60;99.90;;;;;;5134774;27;20059;-72
2023/01/31 01:09:30;;;;;;;24.77;4.38;;;4.60;99.90;;;;;;5136408;27;20137;-72
2023/01/31 01:11:56;;;;;;;20.63;4.07;;;5.50;99.90;;;;;;5136272;27;20078;-72
2023/01/31 01:14:21;;;;;;;15.48;3.28;;;4.60;99.90;;;;;;5135042;27;20043;-72
2023/01/31 01:16:47;;;;;;;21.48;3.22;;;4.60;99.90;;;;;;5135342;27;20043;-71
2023/01/31 01:19:17;;;;;;;26.65;4.22;;;4.60;99.90;;;;;;5136194;27;20069;-72
2023/01/31 01:21:43;;;;;;;16.30;3.40;;;4.60;99.90;;;;;;5136365;27;20039;-72
2023/01/31 01:24:15;;;;;;;20.90;3.40;;;5.40;99.90;;;;;;5135921;27;20045;-72
2023/01/31 01:26:42;;;;;;;18.73;3.70;;;4.40;99.90;;;;;;5134885;27;20047;-72
2023/01/31 01:29:08;;;;;;;26.95;4.10;;;5.00;99.90;;;;;;5116729;27;20051;-72
2023/01/31 01:31:33;;;;;;;24.45;4.72;;;4.30;99.90;;;;;;5117929;27;20059;-72
2023/01/31 01:34:05;;;;;;;18.67;3.03;;;5.80;99.90;;;;;;5136050;27;20047;-72
2023/01/31 01:36:33;;;;;;;25.15;3.78;;;4.30;99.90;;;;;;5136061;27;20074;-72
2023/01/31 01:38:59;;;;;;;19.83;3.65;;;4.80;99.90;;;;;;5133768;27;20102;-71
2023/01/31 01:41:25;;;;;;;28.75;4.18;;;5.60;99.90;;;;;;5137911;27;20550;-72
2023/01/31 01:43:52;;;;;;;21.90;3.55;;;4.30;99.90;;;;;;5155834;27;20038;-72
2023/01/31 01:46:28;;;;;;;17.77;3.35;;;4.30;99.90;;;;;;5137760;27;20171;-72
2023/01/31 01:49:29;;;;;;;19.45;4.25;;;5.20;99.90;;;;;;5114965;27;20337;-72
2023/01/31 01:51:57;;;;;;;19.33;3.08;;;4.40;99.90;;;;;;5144853;27;20043;-72
2023/01/31 01:54:29;;;;;;;17.33;3.13;;;4.30;99.90;;;;;;5137686;27;20103;-72
2023/01/31 01:56:59;;;;;;;21.90;3.67;;;5.40;99.90;;;;;;5137684;27;20043;-72
2023/01/31 01:59:32;;;;;;;22.00;3.50;;;4.40;99.90;;;;;;5134606;27;20171;-72
2023/01/31 02:01:58;;;;;;;25.67;4.10;;;4.40;99.90;;;;;;5134591;27;20399;-72
2023/01/31 02:04:30;;;;;;;24.60;4.35;;;4.40;99.90;;;;;;5135196;27;20043;-72
2023/01/31 02:06:59;;;;;;;17.45;3.50;;;5.80;99.90;;;;;;5147348;27;20054;-72
2023/01/31 02:09:38;;;;;;;17.95;3.53;;;4.40;99.90;;;;;;5136887;27;20069;-72
2023/01/31 02:12:03;;;;;;;21.55;3.95;;;4.40;99.90;;;;;;5115143;28;20451;-72
2023/01/31 02:14:30;;;;;;;21.05;3.10;;;4.40;99.90;;;;;;5107217;27;20078;-72
2023/01/31 02:16:55;;;;;;;15.35;3.40;;;4.90;99.90;;;;;;5135592;27;20057;-72
2023/01/31 02:19:33;;;;;;;20.52;4.03;;;4.50;99.90;;;;;;5135003;27;20043;-72
2023/01/31 02:22:05;;;;;;;12.88;3.50;;;4.50;99.90;;;;;;5135246;27;20039;-72
2023/01/31 02:24:55;;;;;;;18.63;3.28;;;4.60;99.90;;;;;;5133859;27;20064;-72
2023/01/31 02:27:46;;;;;;;19.40;3.72;;;4.60;99.90;;;;;;5133330;27;20049;-72
2023/01/31 02:30:41;;;;;;;19.88;3.33;;;4.70;99.90;;;;;;5134003;27;20070;-72
2023/01/31 02:33:20;;;;;;;21.23;3.30;;;4.70;99.90;;;;;;5133697;27;20069;-72
2023/01/31 02:35:57;;;;;;;15.57;3.60;;;6.00;99.90;;;;;;5131978;27;20471;-72
2023/01/31 02:38:39;;;;;;;16.73;3.83;;;4.80;99.90;;;;;;5134703;27;20156;-72
2023/01/31 02:41:23;;;;;;;23.50;3.60;;;4.80;99.90;;;;;;5139067;27;20091;-72
2023/01/31 02:46:56;;;;;;;16.95;2.92;;;5.60;99.90;;;;;;5136640;27;20043;-72
2023/01/31 02:49:35;;;;;;;17.52;3.10;;;4.80;99.90;;;;;;5146083;27;20062;-72
2023/01/31 02:52:26;;;;;;;18.23;3.20;;;4.80;99.90;;;;;;5136899;27;20462;-72
2023/01/31 02:57:52;;;;;;;16.77;3.35;;;4.80;99.90;;;;;;5154617;27;20047;-71
2023/01/31 03:00:19;;;;;;;18.90;3.67;;;4.80;99.90;;;;;;5119085;27;20487;-72
2023/01/31 03:02:45;;;;;;;21.42;3.08;;;6.20;99.90;;;;;;5152107;27;20049;-72
2023/01/31 03:05:15;;;;;;;15.55;2.90;;;4.80;99.90;;;;;;5153734;27;20030;-72
2023/01/31 03:07:46;;;;;;;14.20;3.05;;;4.80;99.90;;;;;;5154590;27;20449;-72
2023/01/31 03:10:24;;;;;;;13.10;3.60;;;5.00;99.90;;;;;;5136279;27;20440;-72
2023/01/31 03:13:08;;;;;;;17.75;3.35;;;4.80;99.90;;;;;;5154156;27;20049;-72
2023/01/31 03:18:43;;;;;;;18.02;3.08;;;4.90;99.90;;;;;;5134701;27;20035;-72
2023/01/31 03:21:18;;;;;;;19.55;3.60;;;4.90;99.90;;;;;;5154442;27;20129;-72
2023/01/31 03:23:50;;;;;;;20.08;3.45;;;5.90;99.90;;;;;;5154599;27;20034;-72
2023/01/31 03:26:19;;;;;;;16.35;2.78;;;5.50;99.90;;;;;;5154613;27;20074;-71
2023/01/31 03:28:45;;;;;;;18.23;3.00;;;5.00;99.90;;;;;;5154323;27;20043;-72
2023/01/31 03:31:25;;;;;;;16.95;3.30;;;5.60;99.90;;;;;;5154093;27;20394;-72
2023/01/31 03:33:55;;;;;;;16.90;2.75;;;5.00;99.90;;;;;;5112961;28;20055;-72
2023/01/31 03:36:29;;;;;;;18.50;3.63;;;5.00;99.90;;;;;;5114110;27;20461;-72
2023/01/31 03:39:01;;;;;;;17.63;2.97;;;6.30;99.90;;;;;;5153915;27;20039;-72
2023/01/31 03:41:52;;;;;;;15.45;3.20;;;4.90;99.90;;;;;;5135513;27;20110;-72
2023/01/31 03:44:45;;;;;;;18.48;3.60;;;4.90;99.90;;;;;;5117777;27;20106;-72
2023/01/31 03:47:41;;;;;;;23.10;3.90;;;5.00;99.90;;;;;;5135153;27;20045;-72
2023/01/31 03:50:23;;;;;;;19.30;3.50;;;4.90;99.90;;;;;;5092977;28;20506;-72
2023/01/31 03:52:59;;;;;;;21.25;4.10;;;5.50;99.90;;;;;;5135550;27;20371;-72
2023/01/31 03:55:33;;;;;;;;;;;6.20;99.90;;;;;;5134014;27;20440;-72
2023/01/31 03:58:01;;;;;;;20.77;3.78;;;5.10;99.90;;;;;;5117989;27;19919;-72
2023/01/31 04:00:28;;;;;;;17.10;3.50;;;5.10;99.90;;;;;;5153953;27;20049;-72
2023/01/31 04:03:05;;;;;;;22.67;3.90;;;6.10;99.90;;;;;;5146977;27;20492;-72
2023/01/31 04:05:31;;;;;;;20.23;3.83;;;5.20;99.90;;;;;;5133198;28;20035;-72
2023/01/31 04:08:00;;;;;;;14.05;4.00;;;6.20;99.90;;;;;;5133430;28;20465;-72
2023/01/31 04:10:26;;;;;;;20.25;3.80;;;5.70;99.90;;;;;;5133123;28;20051;-72
2023/01/31 04:12:52;;;;;;;20.35;3.58;;;5.30;99.90;;;;;;5129803;28;20112;-72
2023/01/31 04:15:18;;;;;;;19.30;3.25;;;6.40;99.90;;;;;;5132673;28;20129;-72
2023/01/31 04:17:44;;;;;;;18.42;3.45;;;5.30;99.90;;;;;;5133487;28;20118;-71
2023/01/31 04:20:10;;;;;;;17.17;3.70;;;5.40;99.90;;;;;;5129971;28;20499;-72
2023/01/31 04:22:36;;;;;;;21.65;4.63;;;5.40;99.90;;;;;;5133568;28;20055;-72
2023/01/31 04:25:02;;;;;;;18.50;3.40;;;5.30;99.90;;;;;;5133350;27;20043;-72
2023/01/31 04:27:28;;;;;;;18.60;3.85;;;5.40;99.90;;;;;;5133623;28;20399;-73
2023/01/31 04:29:54;;;;;;;15.32;3.70;;;5.40;99.90;;;;;;5132061;28;20039;-72
2023/01/31 04:32:19;;;;;;;20.45;3.63;;;6.50;99.90;;;;;;5130764;28;20076;-72
2023/01/31 04:34:45;;;;;;;18.27;4.43;;;6.70;99.90;;;;;;5132671;28;20387;-72
2023/01/31 04:37:11;;;;;;;20.70;3.67;;;6.00;99.90;;;;;;5132418;28;20388;-72
2023/01/31 04:39:36;;;;;;;17.02;3.65;;;5.40;99.90;;;;;;5134473;27;20048;-72
2023/01/31 04:42:02;;;;;;;17.83;4.07;;;5.40;99.90;;;;;;5153911;27;20042;-72
2023/01/31 04:44:28;;;;;;;23.23;4.95;;;5.50;99.90;;;;;;5153455;27;20046;-72
2023/01/31 04:46:53;;;;;;;19.77;4.55;;;5.60;99.90;;;;;;5135802;27;20035;-72
2023/01/31 04:49:19;;;;;;;25.27;4.13;;;5.60;99.90;;;;;;5129641;27;20045;-72
2023/01/31 04:51:45;;;;;;;21.13;4.38;;;5.60;99.90;;;;;;5138929;27;20046;-73
2023/01/31 04:54:10;;;;;;;22.23;3.92;;;6.50;99.90;;;;;;5157172;27;20043;-72
2023/01/31 04:56:36;;;;;;;24.25;4.50;;;5.60;99.90;;;;;;5157540;27;20039;-72
2023/01/31 04:59:02;;;;;;;18.77;3.95;;;5.70;99.90;;;;;;5157516;27;20074;-72
2023/01/31 05:01:28;;;;;;;19.95;4.78;;;5.80;99.90;;;;;;5157405;27;20488;-72
2023/01/31 05:03:53;;;;;;;24.27;4.45;;;5.80;99.90;;;;;;5138041;27;20339;-72
2023/01/31 05:06:19;;;;;;;21.85;4.78;;;7.10;99.90;;;;;;5138092;27;20042;-73
2023/01/31 05:08:45;;;;;;;24.85;3.72;;;5.70;99.90;;;;;;5136362;27;20051;-72
2023/01/31 05:11:11;;;;;;;21.73;4.25;;;7.20;99.90;;;;;;5137255;27;20099;-72
2023/01/31 05:13:37;;;;;;;32.50;4.93;;;7.10;99.90;;;;;;5156616;27;20509;-73
2023/01/31 05:16:08;;;;;;;26.65;4.75;;;6.00;99.90;;;;;;5138207;27;20117;-73
2023/01/31 05:18:34;;;;;;;25.08;4.68;;;6.00;99.90;;;;;;5156803;27;20515;-72
2023/01/31 05:21:01;;;;;;;23.65;4.68;;;6.00;99.90;;;;;;5156887;27;20043;-73
2023/01/31 05:23:27;;;;;;;22.23;5.15;;;7.30;99.90;;;;;;5157096;27;20045;-72
2023/01/31 05:25:53;;;;;;;25.02;4.88;;;6.50;99.90;;;;;;5156903;27;20070;-72
2023/01/31 05:28:19;;;;;;;22.45;4.78;;;7.30;99.90;;;;;;5138141;27;20133;-72
2023/01/31 05:30:44;;;;;;;22.45;4.32;;;6.10;99.90;;;;;;5137851;27;20088;-72
2023/01/31 05:33:10;;;;;;;22.88;4.88;;;6.10;99.90;;;;;;5156851;27;20077;-72
2023/01/31 05:35:37;;;;;;;22.50;4.78;;;6.80;99.90;;;;;;5156600;27;20046;-73
2023/01/31 05:38:03;;;;;;;32.05;4.97;;;6.20;99.90;;;;;;5155930;27;20035;-72
2023/01/31 05:40:28;;;;;;;25.15;4.93;;;6.10;99.90;;;;;;5137730;27;20395;-73
2023/01/31 05:42:59;;;;;;;22.17;4.55;;;6.80;99.90;;;;;;5155210;27;20533;-73
2023/01/31 05:45:26;;;;;;;29.58;4.40;;;6.80;99.90;;;;;;5137538;27;20047;-72
2023/01/31 05:47:53;;;;;;;24.85;4.88;;;6.20;99.90;;;;;;5135193;27;20510;-73
2023/01/31 05:50:19;;;;;;;23.13;5.22;;;6.80;99.90;;;;;;5156044;27;20035;-73
2023/01/31 05:52:58;;;;;;;27.35;4.75;;;6.20;99.90;;;;;;5156295;27;20039;-73
2023/01/31 05:55:25;;;;;;;26.00;4.40;;;7.80;99.90;;;;;;5154601;27;20082;-72
2023/01/31 05:57:52;;;;;;;29.58;4.85;;;6.20;99.90;;;;;;5154351;27;20053;-72
2023/01/31 06:00:19;;;;;;;26.90;4.78;;;6.20;99.90;;;;;;5137027;27;20031;-73
2023/01/31 06:02:45;;;;;;;33.80;5.50;;;6.20;99.90;;;;;;5117077;27;20053;-72
2023/01/31 06:05:11;;;;;;;24.70;4.63;;;6.10;99.90;;;;;;5136515;27;20487;-72
2023/01/31 06:07:37;;;;;;;23.75;4.63;;;7.40;99.90;;;;;;5133992;27;20541;-72
2023/01/31 06:10:04;;;;;;;28.27;4.78;;;6.20;99.90;;;;;;5134911;27;20086;-72
2023/01/31 06:12:30;;;;;;;27.50;5.18;;;6.20;99.90;;;;;;5113670;28;20043;-72
2023/01/31 06:14:56;;;;;;;24.50;4.75;;;6.20;99.90;;;;;;5095884;28;20044;-71
2023/01/31 06:17:24;;;;;;;19.27;4.43;;;7.70;99.90;;;;;;5114314;28;20123;-72
2023/01/31 06:19:50;;;;;;;26.67;4.60;;;6.30;99.90;;;;;;5114296;28;20050;-71
2023/01/31 06:22:17;;;;;;;20.65;4.63;;;6.30;99.90;;;;;;5115089;27;20039;-72
2023/01/31 06:24:43;;;;;;;31.33;5.22;;;6.30;99.90;;;;;;5134895;27;20043;-72
2023/01/31 06:27:08;;;;;;;22.83;4.30;;;6.40;99.90;;;;;;5135370;27;20041;-72
2023/01/31 06:29:34;;;;;;;21.17;4.35;;;6.40;99.90;;;;;;5133514;27;20081;-72
2023/01/31 06:31:59;;;;;;;26.17;5.00;;;6.40;99.90;;;;;;5133877;27;20043;-73
2023/01/31 06:34:25;;;;;;;23.40;4.55;;;6.40;99.90;;;;;;5136201;27;20035;-73
2023/01/31 06:36:51;;;;;;;23.73;4.97;;;6.90;99.90;;;;;;5155092;27;20054;-72
2023/01/31 06:39:16;;;;;;;25.00;5.10;;;6.40;99.90;;;;;;5155179;27;20482;-72
2023/01/31 06:41:42;;;;;;;32.95;5.03;;;7.30;99.90;;;;;;5154953;27;20042;-73
2023/01/31 06:44:08;;;;;;;26.88;5.70;;;6.30;99.90;;;;;;5135917;27;20054;-72
2023/01/31 06:46:34;;;;;;;30.25;5.70;;;6.30;99.90;;;;;;5119858;27;20038;-73
2023/01/31 06:48:59;;;;;;;25.83;5.43;;;6.30;99.90;;;;;;5142785;27;20118;-72
2023/01/31 06:51:25;;;;;;;21.20;4.22;;;6.30;99.90;;;;;;5124806;27;20493;-73
2023/01/31 06:53:51;;;;;;;17.63;4.30;;;6.40;99.90;;;;;;5136463;27;20074;-73
2023/01/31 06:56:18;;;;;;;22.08;4.88;;;6.40;99.90;;;;;;5136759;27;20042;-73
2023/01/31 06:58:44;;;;;;;21.75;4.53;;;6.50;99.90;;;;;;5121829;27;20045;-72
2023/01/31 07:01:11;;;;;;;25.23;4.50;;;6.40;99.90;;;;;;5113836;28;20044;-72
2023/01/31 07:03:38;;;;;;;21.45;4.50;;;6.50;99.90;;;;;;5113422;28;20043;-73
2023/01/31 07:06:05;;;;;;;17.17;4.07;;;7.40;99.90;;;;;;5111237;27;20075;-72
2023/01/31 07:08:31;;;;;;;20.15;4.72;;;6.40;99.90;;;;;;5154727;27;20103;-72
2023/01/31 07:10:57;;;;;;;24.90;4.50;;;6.40;99.90;;;;;;5154411;27;20117;-73
2023/01/31 07:13:23;;;;;;;24.98;4.13;;;6.40;99.90;;;;;;5154737;27;20379;-73
2023/01/31 07:15:49;;;;;;;18.50;3.88;;;6.50;99.90;;;;;;5135466;27;20049;-73
2023/01/31 07:18:14;;;;;;;29.17;4.70;;;6.70;99.90;;;;;;5135743;27;20084;-72
2023/01/31 07:20:41;;;;;;;19.63;3.60;;;6.50;99.90;;;;;;5154190;27;20236;-72
2023/01/31 07:23:07;;;;;;;18.17;3.88;;;6.50;99.90;;;;;;5135484;27;20043;-73
2023/01/31 07:25:34;;;;;;;19.38;3.70;;;6.50;99.90;;;;;;5115542;27;20035;-73
2023/01/31 07:28:01;;;;;;;23.70;4.13;;;6.50;99.90;;;;;;5115041;27;20046;-72
2023/01/31 07:30:27;;;;;;;20.25;4.35;;;6.60;99.90;;;;;;5147020;27;20053;-72
2023/01/31 07:32:53;;;;;;;18.25;4.15;;;6.60;99.90;;;;;;5135367;27;20034;-72
2023/01/31 07:35:19;;;;;;;20.63;4.68;;;6.60;99.90;;;;;;5154291;27;20121;-72
2023/01/31 07:37:45;;;;;;;18.98;3.47;;;7.80;99.90;;;;;;5154209;27;20035;-72
2023/01/31 07:40:13;;;;;;;20.50;4.25;;;6.60;99.90;;;;;;5154192;27;20042;-72
2023/01/31 07:42:40;;;;;;;23.08;4.90;;;6.60;99.90;;;;;;5135786;27;20034;-72
2023/01/31 07:45:06;;;;;;;21.17;4.68;;;6.60;99.90;;;;;;5134864;27;20119;-72
2023/01/31 07:47:32;;;;;;;21.60;4.10;;;6.60;99.90;;;;;;5154345;27;20039;-72
2023/01/31 07:49:58;;;;;;;18.35;3.55;;;7.40;99.90;;;;;;5113576;28;20108;-73
2023/01/31 07:52:23;;;;;;;21.88;3.70;;;6.70;99.90;;;;;;5133301;27;20479;-72
2023/01/31 07:54:49;;;;;;;20.25;3.78;;;6.70;99.90;;;;;;5132353;27;20051;-74
2023/01/31 07:57:18;;;;;;;16.73;4.75;;;6.70;99.90;;;;;;5130800;27;20036;-74
2023/01/31 07:59:44;;;;;;;16.33;3.38;;;7.40;99.90;;;;;;5117420;28;20183;-73
2023/01/31 08:04:56;;;;;;;18.00;3.15;;;7.00;99.90;;;;;;5133219;28;20039;-74
2023/01/31 08:07:22;;;;;;;18.17;3.30;;;6.70;99.90;;;;;;5133204;28;20046;-74
2023/01/31 08:09:49;;;;;;;17.15;3.17;;;6.80;99.90;;;;;;5131806;28;20043;-72
2023/01/31 08:12:15;;;;;;;13.25;2.97;;;6.80;99.90;;;;;;5151224;27;20521;-73
2023/01/31 08:14:41;;;;;;;14.80;3.17;;;6.90;99.90;;;;;;5153245;27;20053;-72
2023/01/31 08:17:07;;;;;;;14.88;3.30;;;7.80;99.90;;;;;;5154073;27;20034;-71
2023/01/31 08:19:34;;;;;;;15.15;2.97;;;7.80;99.90;;;;;;5153199;27;20168;-72
2023/01/31 08:22:01;;;;;;;18.55;3.30;;;6.90;99.90;;;;;;5136357;27;20046;-72
2023/01/31 08:24:26;;;;;;;14.35;2.83;;;6.90;99.90;;;;;;5138811;27;20045;-71
2023/01/31 08:26:52;;;;;;;16.75;3.80;;;6.90;99.90;;;;;;5158106;27;20039;-72
2023/01/31 08:29:18;;;;;;;14.88;3.15;;;7.60;99.90;;;;;;5121960;27;20054;-71
2023/01/31 08:31:44;;;;;;;14.23;2.90;;;6.90;99.90;;;;;;5139274;27;20038;-71
2023/01/31 08:34:10;;;;;;;12.65;3.60;;;6.90;99.90;;;;;;5138764;27;20042;-73
2023/01/31 08:36:36;;;;;;;16.02;3.60;;;6.90;99.90;;;;;;5157519;27;20047;-73
2023/01/31 08:39:03;;;;;;;15.55;4.10;;;7.30;99.90;;;;;;5156006;27;20031;-74
2023/01/31 08:41:29;;;;;;;12.57;2.88;;;7.00;99.90;;;;;;5157895;27;20042;-74
2023/01/31 08:43:56;;;;;;;12.23;2.83;;;7.00;99.90;;;;;;5157553;27;20065;-72
2023/01/31 08:46:24;;;;;;;14.90;3.30;;;7.00;99.90;;;;;;5139120;27;20050;-75
2023/01/31 08:48:50;;;;;;;20.70;3.17;;;7.00;99.90;;;;;;5127573;27;20043;-72
2023/01/31 08:51:15;;;;;;;11.07;3.05;;;7.00;99.90;;;;;;5136600;27;20043;-74
2023/01/31 08:53:43;;;;;;;20.02;3.50;;;7.80;99.90;;;;;;5113444;28;20440;-72
2023/01/31 08:56:10;;;;;;;15.45;2.70;;;7.60;99.90;;;;;;5080647;28;20071;-73
2023/01/31 08:58:37;;;;;;;16.67;3.50;;;7.10;99.90;;;;;;5096586;28;20480;-72
2023/01/31 09:01:04;;;;;;;19.13;4.07;;;8.10;99.90;;;;;;5152180;27;20046;-75
2023/01/31 09:03:30;;;;;;;14.82;3.40;;;7.10;99.90;;;;;;5120999;27;20039;-74
2023/01/31 09:06:03;;;;;;;16.77;3.88;;;7.10;99.90;;;;;;5156865;27;20057;-72
2023/01/31 09:08:30;;;;;;;16.55;3.40;;;7.20;99.90;;;;;;5137333;27;20042;-71
2023/01/31 09:10:57;;;;;;;20.95;3.70;;;8.30;99.90;;;;;;5156170;27;20051;-71
2023/01/31 09:13:23;;;;;;;19.10;4.13;;;7.20;99.90;;;;;;5117259;27;20485;-71
2023/01/31 09:15:59;;;;;;;17.52;4.32;;;7.20;99.90;;;;;;5100276;27;20062;-71
2023/01/31 09:18:25;;;;;;;18.50;3.20;;;7.30;99.90;;;;;;5104723;27;20039;-71
2023/01/31 09:20:51;;;;;;;16.73;4.05;;;7.90;99.90;;;;;;5136372;27;20050;-71
2023/01/31 09:23:18;;;;;;;21.20;3.63;;;7.30;99.90;;;;;;5150415;27;20122;-72
2023/01/31 09:25:51;;;;;;;17.35;3.28;;;7.90;99.90;;;;;;5156084;27;20050;-72
2023/01/31 09:28:17;;;;;;;18.58;3.67;;;7.30;99.90;;;;;;5137663;27;20035;-72
2023/01/31 09:30:42;;;;;;;15.50;3.50;;;8.30;99.90;;;;;;5155704;27;20399;-71
2023/01/31 09:33:08;;;;;;;17.38;3.53;;;8.10;99.90;;;;;;5155892;27;20043;-71
2023/01/31 09:35:34;;;;;;;25.50;4.20;;;7.40;99.90;;;;;;5157035;27;20043;-71
2023/01/31 09:37:59;;;;;;;15.77;3.33;;;7.40;99.90;;;;;;5156377;27;20031;-71
2023/01/31 09:40:30;;;;;;;18.77;4.10;;;7.60;99.90;;;;;;5156479;27;20479;-72
2023/01/31 09:43:00;;;;;;;17.25;3.72;;;8.10;99.90;;;;;;5156437;27;20046;-72
2023/01/31 09:45:30;;;;;;;17.23;3.83;;;7.80;99.90;;;;;;5137205;27;20118;-71
2023/01/31 09:47:59;;;;;;;14.32;3.00;;;7.40;99.90;;;;;;5149579;27;20795;-71
2023/01/31 09:50:54;;;;;;;19.02;4.00;;;7.40;99.90;;;;;;5096740;28;20047;-71
2023/01/31 09:53:23;;;;;;;20.98;3.80;;;7.40;99.90;;;;;;5075286;28;20074;-72
2023/01/31 09:56:13;;;;;;;21.83;4.30;;;7.40;99.90;;;;;;5114745;28;20544;-72
2023/01/31 09:58:58;;;;;;;18.85;3.97;;;7.40;99.90;;;;;;5105562;27;20114;-71
2023/01/31 10:01:42;;;;;;;22.65;3.80;;;7.80;99.90;;;;;;5137253;27;20057;-71
2023/01/31 10:04:19;;;;;;;19.25;3.88;;;7.40;99.90;;;;;;5137101;27;20062;-71
2023/01/31 10:06:57;;;;;;;19.50;3.70;;;7.90;99.90;;;;;;5137080;27;20047;-71
2023/01/31 10:09:28;;;;;;;20.55;3.50;;;7.50;99.90;;;;;;5143380;27;20060;-72
2023/01/31 10:12:09;;;;;;;16.40;3.90;;;7.50;99.90;;;;;;5099330;27;20047;-73
2023/01/31 10:14:50;;;;;;;13.85;4.03;;;7.60;99.90;;;;;;5116543;27;20455;-72
2023/01/31 10:17:23;;;;;;;16.95;2.88;;;7.60;99.90;;;;;;5127047;27;20129;-72
2023/01/31 10:20:01;;;;;;;19.67;3.42;;;7.60;99.90;;;;;;5132005;27;20114;-72
2023/01/31 10:22:49;;;;;;;15.45;3.80;;;7.70;99.90;;;;;;5134703;27;20039;-72
2023/01/31 10:25:30;;;;;;;20.05;4.57;;;7.60;99.90;;;;;;5136146;27;20484;-72
2023/01/31 10:28:03;;;;;;;19.20;3.53;;;7.60;99.90;;;;;;5113006;27;20062;-72
2023/01/31 10:30:47;;;;;;;19.27;3.95;;;8.10;99.90;;;;;;5134899;27;20084;-72
2023/01/31 10:33:42;;;;;;;22.77;4.22;;;7.60;99.90;;;;;;5134226;27;20035;-72
2023/01/31 10:36:33;;;;;;;14.32;3.67;;;7.60;99.90;;;;;;5135131;27;20484;-72
2023/01/31 10:39:25;;;;;;;15.80;3.72;;;7.50;99.90;;;;;;5135462;27;20043;-72
2023/01/31 10:42:12;;;;;;;14.73;3.55;;;7.60;99.90;;;;;;5149627;27;20171;-72
2023/01/31 10:45:03;;;;;;;16.40;2.85;;;7.60;99.90;;;;;;5150669;27;20410;-73
2023/01/31 10:47:36;;;;;;;15.20;3.33;;;7.50;99.90;;;;;;5143341;27;20058;-72
2023/01/31 10:50:17;;;;;;;16.63;3.95;;;7.60;99.90;;;;;;5117946;27;20049;-72
2023/01/31 10:53:12;;;;;;;19.65;3.90;;;7.50;99.90;;;;;;5135088;27;20487;-71
2023/01/31 10:56:10;;;;;;;16.77;4.20;;;7.50;99.90;;;;;;5131461;27;20054;-71
2023/01/31 10:58:36;;;;;;;17.25;3.75;;;8.60;99.90;;;;;;5078258;28;20040;-72
2023/01/31 11:01:13;;;;;;;17.33;4.07;;;7.70;99.90;;;;;;5123393;27;20122;-72
2023/01/31 11:03:46;;;;;;;21.02;4.50;;;7.60;99.90;;;;;;5135900;27;20047;-72
2023/01/31 11:06:12;;;;;;;16.42;3.28;;;7.60;99.90;;;;;;5136167;27;20043;-71
2023/01/31 11:09:07;;;;;;;17.52;4.07;;;7.60;99.90;;;;;;5154692;27;20058;-72
2023/01/31 11:11:53;;;;;;;17.42;3.40;;;7.60;99.90;;;;;;5113644;27;20042;-72
2023/01/31 11:14:19;;;;;;;19.77;3.88;;;7.70;99.90;;;;;;5135542;27;20364;-73
2023/01/31 11:16:45;;;;;;;22.52;4.38;;;7.70;99.90;;;;;;5115900;27;20095;-70
2023/01/31 11:19:26;;;;;;;11.10;3.03;;;7.70;99.90;;;;;;5123001;27;20049;-70
2023/01/31 11:21:53;;;;;;;21.88;3.88;;;7.70;99.90;;;;;;5109000;27;20035;-70
2023/01/31 11:24:27;;;;;;;18.05;4.22;;;8.00;99.90;;;;;;5096361;27;20463;-70
2023/01/31 11:27:07;;;;;;;18.30;4.28;;;8.00;99.90;;;;;;5132741;27;20056;-70
2023/01/31 11:29:38;;;;;;;20.85;3.97;;;7.70;99.90;;;;;;5109928;27;20095;-70
2023/01/31 11:32:22;;;;;;;15.82;3.38;;;7.70;99.90;;;;;;5130319;27;20078;-70
2023/01/31 11:34:59;;;;;;;22.40;4.78;;;7.70;99.90;;;;;;5113932;27;20493;-70
2023/01/31 11:37:26;;;;;;;16.50;3.67;;;8.00;99.90;;;;;;5094123;27;20039;-69
2023/01/31 11:40:18;;;;;;;21.33;5.07;;;8.30;99.90;;;;;;5130002;27;20039;-70
2023/01/31 11:42:55;;;;;;;20.50;3.50;;;7.70;99.90;;;;;;5112760;27;20053;-69
2023/01/31 11:45:26;;;;;;;23.88;4.35;;;7.70;99.90;;;;;;5110037;27;20456;-69
2023/01/31 11:48:10;;;;;;;19.38;4.30;;;7.80;99.90;;;;;;5127482;27;20091;-69
2023/01/31 11:50:43;;;;;;;18.48;3.17;;;7.80;99.90;;;;;;5109244;27;20043;-70
2023/01/31 11:53:28;;;;;;;16.73;3.53;;;8.30;99.90;;;;;;5117054;27;20393;-76
2023/01/31 11:56:06;;;;;;;22.00;4.05;;;7.90;99.90;;;;;;5116119;28;20049;-76
2023/01/31 11:58:36;;;;;;;23.08;3.72;;;8.00;99.90;;;;;;5133273;27;20138;-78
2023/01/31 12:01:11;;;;;;;20.08;4.00;;;7.90;99.90;;;;;;5131717;28;20088;-77
2023/01/31 12:03:37;;;;;;;19.55;3.72;;;8.30;99.90;;;;;;5134675;27;20059;-76
2023/01/31 12:06:05;;;;;;;20.58;3.97;;;;;;;;;;5131164;28;20477;-77
2023/01/31 12:08:31;;;;;;;24.90;3.90;;;;;;;;;;5134829;27;20050;-77
2023/01/31 12:10:57;;;;;;;13.10;3.40;;;;;;;;;;5134379;27;20047;-78
2023/01/31 12:13:24;;;;;;;25.50;3.78;;;;;;;;;;5133625;27;20122;-77
2023/01/31 12:15:50;;;;;;;19.33;3.83;;;;;;;;;;5153640;27;20043;-76
2023/01/31 12:18:24;;;;;;;19.75;4.05;;;;;;;;;;5153820;27;20038;-76
2023/01/31 12:21:00;;;;;;;19.38;4.18;;;;;;;;;;5117841;27;20130;-77
2023/01/31 12:23:33;;;;;;;22.65;3.80;;;;;;;;;;5135440;27;20039;-77
2023/01/31 12:25:59;;;;;;;22.75;3.70;;;;;;;;;;5153679;27;20046;-78
2023/01/31 12:28:46;;;;;;;15.35;3.80;;;;;;;;;;5153654;27;20034;-78
2023/01/31 12:31:12;;;;;;;20.30;4.15;;;;;;;;;;5134633;27;20042;-77
2023/01/31 12:33:50;;;;;;;17.50;4.00;;;;;;;;;;5134555;27;20082;-77
2023/01/31 12:36:22;;;;;;;16.20;4.00;;;;;;;;;;5134931;27;20078;-77
2023/01/31 12:38:51;;;;;;;16.70;4.53;;;;;;;;;;5135168;27;20062;-77
2023/01/31 12:41:35;;;;;;;19.55;3.40;;;;;;;;;;5153613;27;20490;-77
2023/01/31 12:44:16;;;;;;;13.45;3.28;;;;;;;;;;5153062;27;20440;-77
2023/01/31 12:46:48;;;;;;;15.63;3.83;;;;;;;;;;5134998;27;20043;-77
2023/01/31 12:49:40;;;;;;;14.38;3.05;;;;;;;;;;5138907;27;20048;-77
2023/01/31 12:52:09;;;;;;;23.58;3.60;;;;;;;;;;5114673;28;20508;-77
2023/01/31 12:54:45;;;;;;;16.15;3.47;;;;;;;;;;5096874;28;20035;-77
2023/01/31 12:57:11;;;;;;;;;;;;;;;;;;5133522;28;20079;-77
2023/01/31 12:59:42;;;;;;;16.60;3.65;;;;;;;;;;5132178;28;19966;-77
2023/01/31 13:02:08;;;;;;;12.32;3.20;;;;;;;;;;5132872;28;20482;-76
2023/01/31 13:04:55;;;;;;;13.40;3.40;;;;;;;;;;5095862;28;20084;-77
2023/01/31 13:07:34;;;;;;;16.10;3.10;;;;;;;;;;5111832;27;20116;-77
2023/01/31 13:10:02;;;;;;;14.23;3.38;;;;;;;;;;5117561;27;20054;-77
2023/01/31 13:12:30;;;;;;;15.85;3.65;;;;;;;;;;5100726;27;20130;-77
2023/01/31 13:14:56;;;;;;;17.00;3.58;;;;;;;;;;5117705;27;20180;-77
2023/01/31 13:17:27;;;;;;;14.20;3.35;;;;;;;;;;5100544;27;20042;-77
2023/01/31 13:19:55;;;;;;;14.18;3.30;;;;;;;;;;5117583;27;20035;-77
2023/01/31 13:22:48;;;;;;;12.38;3.05;;;;;;;;;;5117578;27;20051;-77
2023/01/31 13:25:35;;;;;;;15.15;3.15;;;;;;;;;;5132140;27;20126;-77
2023/01/31 13:28:03;;;;;;;15.50;3.38;;;;;;;;;;5100409;27;20043;-77